createdAt,value
2018-11-01T00:04:22.864Z,9.17
2018-11-01T00:09:27.045Z,9.87
2018-11-01T00:14:31.104Z,8.90
2018-11-01T00:19:35.231Z,9.17
2018-11-01T00:24:40.273Z,9.10
2018-11-01T00:29:44.356Z,10.97
2018-11-01T00:34:48.428Z,12.33
2018-11-01T00:39:53.401Z,9.27
2018-11-01T00:44:57.509Z,9.57
2018-11-01T00:50:01.677Z,7.90
2018-11-01T00:55:06.627Z,8.43
2018-11-01T01:00:13.239Z,8.53
2018-11-01T01:05:17.466Z,7.27
2018-11-01T01:10:21.652Z,11.50
2018-11-01T01:15:25.773Z,9.23
2018-11-01T01:20:29.876Z,9.33
2018-11-01T01:25:34.038Z,8.80
2018-11-01T01:30:38.095Z,10.57
2018-11-01T01:35:42.278Z,9.43
2018-11-01T01:40:46.443Z,8.60
2018-11-01T01:45:50.501Z,8.50
2018-11-01T01:50:54.600Z,9.90
2018-11-01T01:55:58.700Z,8.40
2018-11-01T02:01:02.851Z,8.33
2018-11-01T02:06:06.951Z,11.30
2018-11-01T02:11:11.231Z,11.80
2018-11-01T02:16:15.777Z,13.43
2018-11-01T02:21:20.367Z,10.10
2018-11-01T02:26:24.803Z,10.80
2018-11-01T02:31:29.882Z,10.63
2018-11-01T02:36:34.000Z,9.27
2018-11-01T02:41:38.103Z,11.23
2018-11-01T02:46:42.297Z,10.00
2018-11-01T02:51:46.420Z,8.47
2018-11-01T02:56:50.600Z,9.30
2018-11-01T03:01:54.769Z,8.13
2018-11-01T03:06:58.817Z,8.83
2018-11-01T03:12:02.700Z,7.67
2018-11-01T03:17:07.243Z,9.27
2018-11-01T03:22:11.376Z,9.03
2018-11-01T03:27:15.408Z,9.13
2018-11-01T03:32:19.506Z,8.90
2018-11-01T03:37:23.998Z,11.00
2018-11-01T03:42:28.186Z,8.37
2018-11-01T03:47:32.319Z,9.33
2018-11-01T03:52:36.632Z,10.23
2018-11-01T03:57:41.585Z,11.23
2018-11-01T04:02:47.032Z,9.53
2018-11-01T04:07:51.105Z,8.73
2018-11-01T04:12:55.183Z,9.50
2018-11-01T04:17:59.287Z,9.50
2018-11-01T04:23:03.374Z,10.47
2018-11-01T04:28:07.486Z,8.00
2018-11-01T04:33:11.650Z,11.23
2018-11-01T04:38:15.688Z,8.00
2018-11-01T04:43:19.801Z,9.33
2018-11-01T04:48:23.822Z,9.33
2018-11-01T04:53:28.015Z,9.67
2018-11-01T04:58:32.075Z,8.97
2018-11-01T05:03:36.199Z,9.07
2018-11-01T05:08:40.272Z,14.93
2018-11-01T05:13:44.314Z,10.47
2018-11-01T05:18:48.387Z,10.93
2018-11-01T05:23:52.464Z,9.67
2018-11-01T05:28:56.583Z,9.43
2018-11-01T05:34:00.642Z,11.07
2018-11-01T05:39:06.707Z,15.80
2018-11-01T05:44:10.788Z,11.90
2018-11-01T05:49:15.464Z,9.50
2018-11-01T05:54:19.579Z,11.10
2018-11-01T05:59:23.859Z,10.07
2018-11-01T06:04:27.935Z,11.43
2018-11-01T06:09:32.346Z,7.53
2018-11-01T06:14:36.344Z,9.63
2018-11-01T06:19:40.360Z,9.97
2018-11-01T06:24:44.372Z,8.03
2018-11-01T06:29:48.410Z,9.40
2018-11-01T06:34:55.750Z,9.97
2018-11-01T06:39:59.869Z,8.70
2018-11-01T06:45:04.000Z,8.53
2018-11-01T06:50:08.180Z,9.47
2018-11-01T06:55:12.501Z,10.67
2018-11-01T07:00:16.995Z,10.37
2018-11-01T07:05:21.162Z,8.43
2018-11-01T07:10:25.174Z,13.87
2018-11-01T07:15:29.258Z,13.43
2018-11-01T07:20:33.335Z,10.50
2018-11-01T07:25:37.556Z,11.70
2018-11-01T07:30:41.468Z,12.67
2018-11-01T07:35:45.543Z,9.07
2018-11-01T07:40:49.595Z,8.20
2018-11-01T07:45:53.664Z,11.17
2018-11-01T07:50:57.795Z,9.77
2018-11-01T07:56:01.907Z,10.93
2018-11-01T08:01:06.042Z,15.53
2018-11-01T08:06:10.269Z,10.43
2018-11-01T08:11:14.519Z,7.40
2018-11-01T08:16:18.697Z,8.57
2018-11-01T08:21:22.813Z,6.77
2018-11-01T08:26:26.778Z,4.27
2018-11-01T08:31:30.724Z,8.40
2018-11-01T08:36:34.880Z,6.37
2018-11-01T08:41:38.916Z,7.43
2018-11-01T08:46:43.021Z,3.67
2018-11-01T08:51:47.434Z,5.27
2018-11-01T08:56:51.496Z,6.20
2018-11-01T09:01:55.483Z,5.90
2018-11-01T09:06:59.738Z,9.93
2018-11-01T09:12:04.674Z,7.53
2018-11-01T09:17:10.751Z,5.37
2018-11-01T09:22:15.030Z,5.50
2018-11-01T09:27:19.323Z,6.67
2018-11-01T09:32:23.314Z,6.47
2018-11-01T09:37:27.248Z,6.97
2018-11-01T09:42:31.373Z,8.67
2018-11-01T09:47:35.957Z,9.83
2018-11-01T09:52:39.995Z,7.93
2018-11-01T09:57:44.043Z,6.70
2018-11-01T10:02:48.138Z,11.03
2018-11-01T10:07:52.098Z,10.33
2018-11-01T10:12:56.077Z,18.20
2018-11-01T10:18:00.594Z,8.47
2018-11-01T10:23:04.337Z,9.83
2018-11-01T10:28:08.300Z,8.50
2018-11-01T10:33:12.407Z,7.03
2018-11-01T10:38:16.902Z,8.03
2018-11-01T10:43:20.940Z,9.37
2018-11-01T10:48:24.993Z,6.97
2018-11-01T10:53:29.053Z,8.23
2018-11-01T10:58:33.102Z,6.50
2018-11-01T11:03:37.105Z,6.93
2018-11-01T11:08:41.259Z,6.33
2018-11-01T11:13:45.395Z,6.47
2018-11-01T11:18:49.444Z,6.53
2018-11-01T11:23:53.618Z,8.60
2018-11-01T11:28:57.945Z,8.80
2018-11-01T11:34:02.269Z,8.10
2018-11-01T11:39:09.544Z,8.37
2018-11-01T11:44:13.386Z,7.23
2018-11-01T11:49:17.482Z,7.93
2018-11-01T11:54:21.657Z,8.47
2018-11-01T11:59:25.665Z,5.90
2018-11-01T12:04:29.759Z,10.13
2018-11-01T12:09:34.030Z,8.03
2018-11-01T12:14:38.122Z,10.80
2018-11-01T12:19:42.240Z,12.33
2018-11-01T12:24:46.392Z,9.87
2018-11-01T12:29:50.543Z,11.33
2018-11-01T12:34:54.638Z,10.73
2018-11-01T12:39:58.742Z,9.40
2018-11-01T12:45:02.904Z,10.53
2018-11-01T12:50:08.929Z,12.10
2018-11-01T12:55:12.865Z,8.93
2018-11-01T13:00:16.950Z,8.00
2018-11-01T13:05:21.044Z,8.27
2018-11-01T13:10:25.049Z,9.40
2018-11-01T13:15:29.088Z,7.97
2018-11-01T13:20:33.190Z,12.67
2018-11-01T13:25:37.795Z,5.43
2018-11-01T13:30:41.909Z,6.70
2018-11-01T13:35:46.291Z,7.90
2018-11-01T13:40:50.565Z,6.50
2018-11-01T13:45:54.345Z,13.33
2018-11-01T13:50:58.522Z,12.90
2018-11-01T13:56:03.166Z,11.30
2018-11-01T14:01:07.357Z,11.40
2018-11-01T14:06:11.647Z,9.00
2018-11-01T14:11:15.716Z,13.10
2018-11-01T14:16:19.887Z,26.97
2018-11-01T14:21:24.825Z,10.47
2018-11-01T14:26:28.853Z,8.37
2018-11-01T14:31:32.873Z,13.43
2018-11-01T14:36:36.961Z,11.27
2018-11-01T14:41:41.323Z,10.10
2018-11-01T14:46:45.429Z,22.67
2018-11-01T14:51:49.581Z,14.83
2018-11-01T14:56:55.237Z,12.10
2018-11-01T15:01:57.979Z,23.57
2018-11-01T15:07:02.339Z,15.43
2018-11-01T15:12:06.888Z,8.47
2018-11-01T15:17:12.714Z,14.80
2018-11-01T15:22:18.143Z,12.73
2018-11-01T15:27:22.232Z,23.37
2018-11-01T15:32:29.238Z,14.47
2018-11-01T15:37:33.423Z,15.00
2018-11-01T15:42:37.508Z,13.37
2018-11-01T15:47:42.310Z,14.97
2018-11-01T15:52:46.807Z,12.67
2018-11-01T15:57:50.861Z,15.63
2018-11-01T16:02:55.227Z,14.07
2018-11-01T16:07:59.299Z,15.20
2018-11-01T16:13:03.402Z,12.43
2018-11-01T16:18:07.566Z,19.73
2018-11-01T16:23:12.238Z,19.17
2018-11-01T16:28:16.322Z,21.10
2018-11-01T16:33:20.492Z,20.47
2018-11-01T16:38:24.704Z,16.90
2018-11-01T16:43:31.256Z,27.17
2018-11-01T16:48:35.632Z,23.67
2018-11-01T16:53:40.015Z,37.53
2018-11-01T16:58:44.303Z,35.33
2018-11-01T17:03:48.400Z,39.27
2018-11-01T17:08:52.527Z,36.10
2018-11-01T17:13:56.654Z,40.43
2018-11-01T17:19:00.571Z,33.77
2018-11-01T17:24:04.742Z,30.93
2018-11-01T17:29:09.098Z,17.63
2018-11-01T17:34:13.339Z,15.87
2018-11-01T17:39:18.588Z,14.50
2018-11-01T17:44:23.673Z,18.93
2018-11-01T17:49:28.160Z,20.90
2018-11-01T17:54:32.834Z,19.40
2018-11-01T17:59:37.019Z,17.50
2018-11-01T18:04:41.501Z,15.40
2018-11-01T18:09:45.580Z,13.27
2018-11-01T18:14:49.800Z,11.00
2018-11-01T18:19:53.989Z,11.37
2018-11-01T18:24:58.131Z,18.60
2018-11-01T18:30:02.402Z,8.50
2018-11-01T18:35:07.640Z,10.60
2018-11-01T18:40:18.924Z,13.97
2018-11-01T18:45:25.460Z,7.53
2018-11-01T18:50:30.195Z,9.60
2018-11-01T18:55:34.626Z,10.53
2018-11-01T19:00:39.040Z,14.90
2018-11-01T19:05:43.318Z,13.30
2018-11-01T19:10:47.678Z,14.90
2018-11-01T19:15:51.839Z,18.70
2018-11-01T19:20:56.115Z,14.50
2018-11-01T19:26:00.259Z,9.90
2018-11-01T19:31:04.490Z,8.10
2018-11-01T19:36:08.375Z,13.60
2018-11-01T19:41:12.464Z,9.40
2018-11-01T19:46:17.147Z,7.20
2018-11-01T19:51:23.515Z,14.20
2018-11-01T19:56:27.795Z,7.90
2018-11-01T20:01:31.968Z,8.23
2018-11-01T20:06:36.192Z,14.17
2018-11-01T20:11:40.761Z,12.70
2018-11-01T20:16:44.923Z,10.60
2018-11-01T20:21:49.599Z,10.73
2018-11-01T20:26:54.869Z,8.57
2018-11-01T20:32:00.482Z,7.90
2018-11-01T20:37:04.950Z,6.53
2018-11-01T20:42:11.109Z,8.47
2018-11-01T20:47:16.558Z,6.67
2018-11-01T20:52:20.936Z,8.63
2018-11-01T20:57:25.593Z,7.77
2018-11-01T21:02:29.920Z,6.17
2018-11-01T21:07:34.251Z,8.03
2018-11-01T21:12:38.752Z,6.77
2018-11-01T21:17:42.720Z,8.73
2018-11-01T21:22:47.219Z,10.23
2018-11-01T21:27:52.741Z,16.87
2018-11-01T21:32:57.787Z,14.43
2018-11-01T21:38:05.007Z,15.47
2018-11-01T21:43:17.927Z,15.00
2018-11-01T21:48:25.490Z,13.87
2018-11-01T21:53:31.546Z,16.13
2018-11-01T21:58:37.653Z,14.77
2018-11-01T22:03:41.791Z,15.03
2018-11-01T22:08:46.495Z,15.57
2018-11-01T22:13:50.250Z,11.87
2018-11-01T22:18:54.420Z,11.13
2018-11-01T22:23:58.573Z,13.83
2018-11-01T22:29:02.393Z,11.97
2018-11-01T22:34:06.555Z,11.87
2018-11-01T22:39:11.954Z,12.03
2018-11-01T22:44:16.440Z,13.90
2018-11-01T22:49:20.256Z,15.20
2018-11-01T22:54:25.694Z,10.63
2018-11-01T22:59:29.947Z,13.43
2018-11-01T23:04:34.418Z,11.77
2018-11-01T23:09:38.282Z,12.10
2018-11-01T23:14:45.213Z,12.03
2018-11-01T23:19:49.312Z,10.70
2018-11-01T23:24:53.356Z,7.77
2018-11-01T23:29:57.714Z,10.33
2018-11-01T23:35:01.781Z,9.10
2018-11-01T23:40:11.636Z,10.10
2018-11-01T23:45:21.398Z,10.77
2018-11-01T23:50:30.162Z,9.83
2018-11-01T23:55:34.416Z,8.30
